sensor_id;sensor_type;location;lat;lon;timestamp;P1;durP1;ratioP1;P2;durP2;ratioP2
41514;SDS011;27247;48.020;16.720;2023-12-20T00:01:54;133.87;;;45.13;;
41514;SDS011;27247;48.020;16.720;2023-12-20T00:06:05;108.82;;;46.35;;
41514;SDS011;27247;48.020;16.720;2023-12-20T00:10:15;120.38;;;46.72;;
41514;SDS011;27247;48.020;16.720;2023-12-20T00:14:26;124.47;;;45.38;;
41514;SDS011;27247;48.020;16.720;2023-12-20T00:18:36;132.77;;;47.73;;
41514;SDS011;27247;48.020;16.720;2023-12-20T00:22:46;152.50;;;48.27;;
41514;SDS011;27247;48.020;16.720;2023-12-20T00:26:57;126.88;;;48.08;;
41514;SDS011;27247;48.020;16.720;2023-12-20T00:31:07;146.87;;;49.37;;
41514;SDS011;27247;48.020;16.720;2023-12-20T00:35:18;172.57;;;50.60;;
41514;SDS011;27247;48.020;16.720;2023-12-20T00:39:28;119.45;;;47.38;;
41514;SDS011;27247;48.020;16.720;2023-12-20T00:43:39;115.03;;;45.43;;
41514;SDS011;27247;48.020;16.720;2023-12-20T00:47:49;139.70;;;49.13;;
41514;SDS011;27247;48.020;16.720;2023-12-20T00:51:59;126.80;;;48.10;;
41514;SDS011;27247;48.020;16.720;2023-12-20T00:56:10;110.40;;;46.37;;
41514;SDS011;27247;48.020;16.720;2023-12-20T01:00:20;129.10;;;47.13;;
41514;SDS011;27247;48.020;16.720;2023-12-20T01:04:31;99.13;;;45.50;;
41514;SDS011;27247;48.020;16.720;2023-12-20T01:08:41;125.13;;;49.05;;
41514;SDS011;27247;48.020;16.720;2023-12-20T01:12:52;103.83;;;44.27;;
41514;SDS011;27247;48.020;16.720;2023-12-20T01:17:02;143.53;;;47.50;;
41514;SDS011;27247;48.020;16.720;2023-12-20T01:21:12;110.20;;;47.28;;
41514;SDS011;27247;48.020;16.720;2023-12-20T01:25:23;179.30;;;51.70;;
41514;SDS011;27247;48.020;16.720;2023-12-20T01:29:33;140.30;;;46.27;;
41514;SDS011;27247;48.020;16.720;2023-12-20T01:33:43;125.05;;;47.58;;
41514;SDS011;27247;48.020;16.720;2023-12-20T01:37:53;140.47;;;47.50;;
41514;SDS011;27247;48.020;16.720;2023-12-20T01:42:07;135.07;;;49.95;;
41514;SDS011;27247;48.020;16.720;2023-12-20T01:46:17;112.50;;;48.40;;
41514;SDS011;27247;48.020;16.720;2023-12-20T01:50:29;148.40;;;51.10;;
41514;SDS011;27247;48.020;16.720;2023-12-20T01:54:41;127.55;;;48.08;;
41514;SDS011;27247;48.020;16.720;2023-12-20T01:58:52;137.13;;;49.83;;
41514;SDS011;27247;48.020;16.720;2023-12-20T02:03:03;111.35;;;48.50;;
41514;SDS011;27247;48.020;16.720;2023-12-20T02:07:14;109.38;;;46.97;;
41514;SDS011;27247;48.020;16.720;2023-12-20T02:11:25;141.15;;;53.15;;
41514;SDS011;27247;48.020;16.720;2023-12-20T02:15:36;151.40;;;53.00;;
41514;SDS011;27247;48.020;16.720;2023-12-20T02:19:51;132.35;;;49.88;;
41514;SDS011;27247;48.020;16.720;2023-12-20T02:24:01;116.57;;;51.10;;
41514;SDS011;27247;48.020;16.720;2023-12-20T02:28:12;151.48;;;49.47;;
41514;SDS011;27247;48.020;16.720;2023-12-20T02:32:24;169.65;;;51.47;;
41514;SDS011;27247;48.020;16.720;2023-12-20T02:36:37;103.80;;;45.92;;
41514;SDS011;27247;48.020;16.720;2023-12-20T02:40:47;158.10;;;48.97;;
41514;SDS011;27247;48.020;16.720;2023-12-20T02:44:58;134.30;;;49.73;;
41514;SDS011;27247;48.020;16.720;2023-12-20T02:49:08;140.20;;;48.97;;
41514;SDS011;27247;48.020;16.720;2023-12-20T02:53:18;129.13;;;48.00;;
41514;SDS011;27247;48.020;16.720;2023-12-20T02:57:28;120.90;;;47.13;;
41514;SDS011;27247;48.020;16.720;2023-12-20T03:01:43;110.50;;;46.57;;
41514;SDS011;27247;48.020;16.720;2023-12-20T03:05:54;137.27;;;47.17;;
41514;SDS011;27247;48.020;16.720;2023-12-20T03:10:04;132.27;;;48.33;;
41514;SDS011;27247;48.020;16.720;2023-12-20T03:14:16;114.53;;;47.40;;
41514;SDS011;27247;48.020;16.720;2023-12-20T03:18:26;125.63;;;47.00;;
41514;SDS011;27247;48.020;16.720;2023-12-20T03:22:38;104.72;;;45.30;;
41514;SDS011;27247;48.020;16.720;2023-12-20T03:26:48;116.65;;;45.83;;
41514;SDS011;27247;48.020;16.720;2023-12-20T03:30:59;120.00;;;46.00;;
41514;SDS011;27247;48.020;16.720;2023-12-20T03:35:09;102.75;;;46.85;;
41514;SDS011;27247;48.020;16.720;2023-12-20T03:39:19;114.22;;;47.85;;
41514;SDS011;27247;48.020;16.720;2023-12-20T03:43:30;145.73;;;48.33;;
41514;SDS011;27247;48.020;16.720;2023-12-20T03:47:40;131.18;;;49.03;;
41514;SDS011;27247;48.020;16.720;2023-12-20T03:51:50;120.53;;;48.23;;
41514;SDS011;27247;48.020;16.720;2023-12-20T03:56:01;130.20;;;48.00;;
41514;SDS011;27247;48.020;16.720;2023-12-20T04:00:11;114.65;;;47.70;;
41514;SDS011;27247;48.020;16.720;2023-12-20T04:04:22;107.50;;;44.72;;
41514;SDS011;27247;48.020;16.720;2023-12-20T04:08:32;105.20;;;46.03;;
41514;SDS011;27247;48.020;16.720;2023-12-20T04:12:42;104.07;;;44.77;;
41514;SDS011;27247;48.020;16.720;2023-12-20T04:16:53;113.57;;;47.57;;
41514;SDS011;27247;48.020;16.720;2023-12-20T04:21:04;118.70;;;44.80;;
41514;SDS011;27247;48.020;16.720;2023-12-20T04:25:14;106.53;;;46.33;;
41514;SDS011;27247;48.020;16.720;2023-12-20T04:29:24;223.50;;;52.63;;
41514;SDS011;27247;48.020;16.720;2023-12-20T04:33:34;189.95;;;51.00;;
41514;SDS011;27247;48.020;16.720;2023-12-20T04:37:45;114.90;;;46.77;;
41514;SDS011;27247;48.020;16.720;2023-12-20T04:41:55;106.72;;;45.75;;
41514;SDS011;27247;48.020;16.720;2023-12-20T04:46:06;174.45;;;49.22;;
41514;SDS011;27247;48.020;16.720;2023-12-20T04:50:16;104.65;;;45.17;;
41514;SDS011;27247;48.020;16.720;2023-12-20T04:54:26;105.35;;;44.45;;
41514;SDS011;27247;48.020;16.720;2023-12-20T04:58:36;157.77;;;46.70;;
41514;SDS011;27247;48.020;16.720;2023-12-20T05:02:47;169.88;;;45.65;;
41514;SDS011;27247;48.020;16.720;2023-12-20T05:06:57;86.72;;;39.47;;
41514;SDS011;27247;48.020;16.720;2023-12-20T05:11:08;117.97;;;42.93;;
41514;SDS011;27247;48.020;16.720;2023-12-20T05:15:18;92.97;;;41.95;;
41514;SDS011;27247;48.020;16.720;2023-12-20T05:19:28;96.15;;;41.70;;
41514;SDS011;27247;48.020;16.720;2023-12-20T05:23:38;89.45;;;40.50;;
41514;SDS011;27247;48.020;16.720;2023-12-20T05:27:49;89.65;;;41.78;;
41514;SDS011;27247;48.020;16.720;2023-12-20T05:31:59;93.97;;;44.03;;
41514;SDS011;27247;48.020;16.720;2023-12-20T05:36:09;84.50;;;39.40;;
41514;SDS011;27247;48.020;16.720;2023-12-20T05:40:21;93.82;;;43.38;;
41514;SDS011;27247;48.020;16.720;2023-12-20T05:44:31;110.93;;;44.40;;
41514;SDS011;27247;48.020;16.720;2023-12-20T05:48:41;87.93;;;38.80;;
41514;SDS011;27247;48.020;16.720;2023-12-20T05:52:52;83.10;;;40.65;;
41514;SDS011;27247;48.020;16.720;2023-12-20T05:57:02;83.67;;;39.57;;
41514;SDS011;27247;48.020;16.720;2023-12-20T06:01:14;91.78;;;44.08;;
41514;SDS011;27247;48.020;16.720;2023-12-20T06:05:24;91.47;;;42.53;;
41514;SDS011;27247;48.020;16.720;2023-12-20T06:09:35;101.33;;;48.73;;
41514;SDS011;27247;48.020;16.720;2023-12-20T06:13:45;98.82;;;42.35;;
41514;SDS011;27247;48.020;16.720;2023-12-20T06:17:56;92.67;;;43.63;;
41514;SDS011;27247;48.020;16.720;2023-12-20T06:22:06;91.97;;;41.20;;
41514;SDS011;27247;48.020;16.720;2023-12-20T06:26:16;83.43;;;38.60;;
41514;SDS011;27247;48.020;16.720;2023-12-20T06:30:27;90.37;;;40.77;;
41514;SDS011;27247;48.020;16.720;2023-12-20T06:34:37;93.40;;;43.33;;
41514;SDS011;27247;48.020;16.720;2023-12-20T06:38:48;121.97;;;53.47;;
41514;SDS011;27247;48.020;16.720;2023-12-20T06:42:58;122.15;;;52.97;;
41514;SDS011;27247;48.020;16.720;2023-12-20T06:47:09;89.40;;;42.13;;
41514;SDS011;27247;48.020;16.720;2023-12-20T06:51:19;86.65;;;41.60;;
41514;SDS011;27247;48.020;16.720;2023-12-20T06:55:30;86.20;;;41.40;;
41514;SDS011;27247;48.020;16.720;2023-12-20T06:59:40;82.40;;;40.42;;
41514;SDS011;27247;48.020;16.720;2023-12-20T07:03:51;73.80;;;34.70;;
41514;SDS011;27247;48.020;16.720;2023-12-20T07:08:01;83.80;;;39.97;;
41514;SDS011;27247;48.020;16.720;2023-12-20T07:12:12;96.93;;;43.97;;
41514;SDS011;27247;48.020;16.720;2023-12-20T07:16:22;109.45;;;49.25;;
41514;SDS011;27247;48.020;16.720;2023-12-20T07:20:33;102.30;;;49.78;;
41514;SDS011;27247;48.020;16.720;2023-12-20T07:24:43;96.20;;;44.72;;
41514;SDS011;27247;48.020;16.720;2023-12-20T07:28:53;100.97;;;45.78;;
41514;SDS011;27247;48.020;16.720;2023-12-20T07:33:04;92.47;;;44.00;;
41514;SDS011;27247;48.020;16.720;2023-12-20T07:37:15;111.18;;;50.55;;
41514;SDS011;27247;48.020;16.720;2023-12-20T07:41:25;108.45;;;50.42;;
41514;SDS011;27247;48.020;16.720;2023-12-20T07:45:35;117.65;;;51.80;;
41514;SDS011;27247;48.020;16.720;2023-12-20T07:49:46;110.47;;;48.47;;
41514;SDS011;27247;48.020;16.720;2023-12-20T07:53:56;115.30;;;49.10;;
41514;SDS011;27247;48.020;16.720;2023-12-20T07:58:06;103.80;;;43.75;;
41514;SDS011;27247;48.020;16.720;2023-12-20T08:02:17;86.20;;;41.30;;
41514;SDS011;27247;48.020;16.720;2023-12-20T08:06:27;91.50;;;40.50;;
41514;SDS011;27247;48.020;16.720;2023-12-20T08:10:37;88.70;;;40.27;;
41514;SDS011;27247;48.020;16.720;2023-12-20T08:14:47;67.40;;;33.40;;
41514;SDS011;27247;48.020;16.720;2023-12-20T08:18:58;50.37;;;23.00;;
41514;SDS011;27247;48.020;16.720;2023-12-20T08:23:08;35.57;;;16.60;;
41514;SDS011;27247;48.020;16.720;2023-12-20T08:27:18;18.88;;;9.57;;
41514;SDS011;27247;48.020;16.720;2023-12-20T08:31:29;14.32;;;7.78;;
41514;SDS011;27247;48.020;16.720;2023-12-20T08:35:39;31.27;;;10.75;;
41514;SDS011;27247;48.020;16.720;2023-12-20T08:39:52;18.15;;;10.02;;
41514;SDS011;27247;48.020;16.720;2023-12-20T08:44:03;14.65;;;9.23;;
41514;SDS011;27247;48.020;16.720;2023-12-20T08:48:13;17.95;;;8.48;;
41514;SDS011;27247;48.020;16.720;2023-12-20T08:52:23;17.40;;;8.83;;
41514;SDS011;27247;48.020;16.720;2023-12-20T08:56:34;16.30;;;9.23;;
41514;SDS011;27247;48.020;16.720;2023-12-20T09:00:45;17.15;;;9.60;;
41514;SDS011;27247;48.020;16.720;2023-12-20T09:04:55;22.80;;;10.93;;
41514;SDS011;27247;48.020;16.720;2023-12-20T09:09:05;19.30;;;8.97;;
41514;SDS011;27247;48.020;16.720;2023-12-20T09:13:18;16.00;;;8.27;;
41514;SDS011;27247;48.020;16.720;2023-12-20T09:17:28;13.37;;;7.63;;
41514;SDS011;27247;48.020;16.720;2023-12-20T09:21:39;13.20;;;7.53;;
41514;SDS011;27247;48.020;16.720;2023-12-20T09:25:50;7.80;;;5.18;;
41514;SDS011;27247;48.020;16.720;2023-12-20T09:30:00;9.55;;;5.32;;
41514;SDS011;27247;48.020;16.720;2023-12-20T09:34:11;10.67;;;5.00;;
41514;SDS011;27247;48.020;16.720;2023-12-20T09:38:21;8.53;;;5.33;;
41514;SDS011;27247;48.020;16.720;2023-12-20T09:46:52;9.13;;;4.05;;
41514;SDS011;27247;48.020;16.720;2023-12-20T09:51:04;5.05;;;3.00;;
41514;SDS011;27247;48.020;16.720;2023-12-20T09:55:15;5.82;;;2.67;;
41514;SDS011;27247;48.020;16.720;2023-12-20T09:59:28;3.28;;;2.63;;
41514;SDS011;27247;48.020;16.720;2023-12-20T10:03:39;6.23;;;2.60;;
41514;SDS011;27247;48.020;16.720;2023-12-20T10:07:50;4.30;;;2.00;;
41514;SDS011;27247;48.020;16.720;2023-12-20T10:12:01;2.50;;;1.83;;
41514;SDS011;27247;48.020;16.720;2023-12-20T10:16:11;2.67;;;1.67;;
41514;SDS011;27247;48.020;16.720;2023-12-20T10:20:21;3.10;;;1.90;;
41514;SDS011;27247;48.020;16.720;2023-12-20T10:24:32;2.37;;;1.50;;
41514;SDS011;27247;48.020;16.720;2023-12-20T10:28:42;2.70;;;1.97;;
41514;SDS011;27247;48.020;16.720;2023-12-20T10:32:52;3.10;;;2.10;;
41514;SDS011;27247;48.020;16.720;2023-12-20T10:37:03;3.13;;;1.80;;
41514;SDS011;27247;48.020;16.720;2023-12-20T10:41:13;2.45;;;1.90;;
41514;SDS011;27247;48.020;16.720;2023-12-20T10:45:27;3.53;;;1.90;;
41514;SDS011;27247;48.020;16.720;2023-12-20T10:49:38;2.67;;;1.90;;
41514;SDS011;27247;48.020;16.720;2023-12-20T10:53:50;4.32;;;2.42;;
41514;SDS011;27247;48.020;16.720;2023-12-20T10:58:06;3.65;;;2.22;;
41514;SDS011;27247;48.020;16.720;2023-12-20T11:02:20;3.30;;;2.40;;
41514;SDS011;27247;48.020;16.720;2023-12-20T11:15:13;3.03;;;1.90;;
41514;SDS011;27247;48.020;16.720;2023-12-20T11:19:25;2.28;;;1.40;;
41514;SDS011;27247;48.020;16.720;2023-12-20T11:23:35;2.60;;;1.93;;
41514;SDS011;27247;48.020;16.720;2023-12-20T11:28:06;2.08;;;1.52;;
41514;SDS011;27247;48.020;16.720;2023-12-20T11:36:34;1.75;;;1.60;;
41514;SDS011;27247;48.020;16.720;2023-12-20T11:40:44;1.90;;;1.63;;
41514;SDS011;27247;48.020;16.720;2023-12-20T11:44:58;5.93;;;2.90;;
41514;SDS011;27247;48.020;16.720;2023-12-20T11:49:09;5.28;;;3.08;;
41514;SDS011;27247;48.020;16.720;2023-12-20T11:53:19;4.80;;;2.97;;
41514;SDS011;27247;48.020;16.720;2023-12-20T11:57:30;6.85;;;2.78;;
41514;SDS011;27247;48.020;16.720;2023-12-20T12:01:47;4.28;;;2.38;;
41514;SDS011;27247;48.020;16.720;2023-12-20T12:05:59;4.10;;;2.05;;
41514;SDS011;27247;48.020;16.720;2023-12-20T12:10:10;1.92;;;1.30;;
41514;SDS011;27247;48.020;16.720;2023-12-20T12:14:21;3.72;;;2.30;;
41514;SDS011;27247;48.020;16.720;2023-12-20T12:18:31;3.38;;;2.00;;
41514;SDS011;27247;48.020;16.720;2023-12-20T12:22:42;1.10;;;1.03;;
41514;SDS011;27247;48.020;16.720;2023-12-20T12:26:52;1.45;;;1.23;;
41514;SDS011;27247;48.020;16.720;2023-12-20T12:31:02;1.95;;;0.90;;
41514;SDS011;27247;48.020;16.720;2023-12-20T12:35:13;1.67;;;0.93;;
41514;SDS011;27247;48.020;16.720;2023-12-20T12:39:24;1.27;;;1.02;;
41514;SDS011;27247;48.020;16.720;2023-12-20T12:43:37;0.85;;;0.82;;
41514;SDS011;27247;48.020;16.720;2023-12-20T12:47:47;1.35;;;1.17;;
41514;SDS011;27247;48.020;16.720;2023-12-20T12:51:58;0.70;;;0.70;;
41514;SDS011;27247;48.020;16.720;2023-12-20T12:56:08;5.27;;;0.90;;
41514;SDS011;27247;48.020;16.720;2023-12-20T13:00:18;0.80;;;0.60;;
41514;SDS011;27247;48.020;16.720;2023-12-20T13:04:29;1.10;;;0.70;;
41514;SDS011;27247;48.020;16.720;2023-12-20T13:08:39;1.20;;;0.60;;
41514;SDS011;27247;48.020;16.720;2023-12-20T13:12:50;2.72;;;0.70;;
41514;SDS011;27247;48.020;16.720;2023-12-20T13:17:03;1.47;;;0.60;;
41514;SDS011;27247;48.020;16.720;2023-12-20T13:21:14;1.30;;;0.63;;
41514;SDS011;27247;48.020;16.720;2023-12-20T13:25:24;1.20;;;0.60;;
41514;SDS011;27247;48.020;16.720;2023-12-20T13:29:34;0.95;;;0.80;;
41514;SDS011;27247;48.020;16.720;2023-12-20T13:33:45;3.10;;;0.83;;
41514;SDS011;27247;48.020;16.720;2023-12-20T13:37:55;1.67;;;0.98;;
41514;SDS011;27247;48.020;16.720;2023-12-20T13:42:06;2.42;;;0.80;;
41514;SDS011;27247;48.020;16.720;2023-12-20T13:46:16;0.98;;;0.73;;
41514;SDS011;27247;48.020;16.720;2023-12-20T13:50:27;0.60;;;0.60;;
41514;SDS011;27247;48.020;16.720;2023-12-20T13:54:37;0.87;;;0.80;;
41514;SDS011;27247;48.020;16.720;2023-12-20T13:58:48;0.90;;;0.65;;
41514;SDS011;27247;48.020;16.720;2023-12-20T14:02:58;1.08;;;0.90;;
41514;SDS011;27247;48.020;16.720;2023-12-20T14:07:09;1.33;;;0.93;;
41514;SDS011;27247;48.020;16.720;2023-12-20T14:11:20;2.55;;;1.67;;
41514;SDS011;27247;48.020;16.720;2023-12-20T14:15:31;3.15;;;2.15;;
41514;SDS011;27247;48.020;16.720;2023-12-20T14:19:46;2.15;;;1.95;;
41514;SDS011;27247;48.020;16.720;2023-12-20T14:23:57;2.57;;;1.70;;
41514;SDS011;27247;48.020;16.720;2023-12-20T14:28:07;2.57;;;2.23;;
41514;SDS011;27247;48.020;16.720;2023-12-20T14:32:17;2.47;;;1.73;;
41514;SDS011;27247;48.020;16.720;2023-12-20T14:36:28;1.33;;;1.23;;
41514;SDS011;27247;48.020;16.720;2023-12-20T14:40:40;2.20;;;1.65;;
41514;SDS011;27247;48.020;16.720;2023-12-20T14:44:51;3.03;;;1.63;;
41514;SDS011;27247;48.020;16.720;2023-12-20T14:49:02;2.25;;;1.80;;
41514;SDS011;27247;48.020;16.720;2023-12-20T14:53:13;2.75;;;1.63;;
41514;SDS011;27247;48.020;16.720;2023-12-20T14:57:25;4.70;;;1.70;;
41514;SDS011;27247;48.020;16.720;2023-12-20T15:01:36;2.88;;;1.90;;
41514;SDS011;27247;48.020;16.720;2023-12-20T15:05:46;1.83;;;1.45;;
41514;SDS011;27247;48.020;16.720;2023-12-20T15:09:57;1.40;;;1.20;;
41514;SDS011;27247;48.020;16.720;2023-12-20T15:14:08;1.80;;;1.70;;
41514;SDS011;27247;48.020;16.720;2023-12-20T15:18:18;6.68;;;5.30;;
41514;SDS011;27247;48.020;16.720;2023-12-20T15:22:28;2.22;;;2.03;;
41514;SDS011;27247;48.020;16.720;2023-12-20T15:26:39;2.65;;;2.00;;
41514;SDS011;27247;48.020;16.720;2023-12-20T15:30:49;2.58;;;2.38;;
41514;SDS011;27247;48.020;16.720;2023-12-20T15:35:00;2.40;;;1.95;;
41514;SDS011;27247;48.020;16.720;2023-12-20T15:39:10;1.90;;;1.80;;
41514;SDS011;27247;48.020;16.720;2023-12-20T15:43:24;3.28;;;2.17;;
41514;SDS011;27247;48.020;16.720;2023-12-20T15:47:35;3.60;;;1.92;;
41514;SDS011;27247;48.020;16.720;2023-12-20T15:51:48;2.33;;;2.10;;
41514;SDS011;27247;48.020;16.720;2023-12-20T15:56:00;2.17;;;1.98;;
41514;SDS011;27247;48.020;16.720;2023-12-20T16:00:10;2.63;;;2.15;;
41514;SDS011;27247;48.020;16.720;2023-12-20T16:04:21;3.53;;;2.78;;
41514;SDS011;27247;48.020;16.720;2023-12-20T16:08:31;8.43;;;4.35;;
41514;SDS011;27247;48.020;16.720;2023-12-20T16:12:42;11.43;;;6.70;;
41514;SDS011;27247;48.020;16.720;2023-12-20T16:16:52;7.68;;;4.60;;
41514;SDS011;27247;48.020;16.720;2023-12-20T16:21:02;3.97;;;3.53;;
41514;SDS011;27247;48.020;16.720;2023-12-20T16:25:13;5.00;;;2.95;;
41514;SDS011;27247;48.020;16.720;2023-12-20T16:29:23;5.30;;;2.87;;
41514;SDS011;27247;48.020;16.720;2023-12-20T16:33:33;2.78;;;2.47;;
41514;SDS011;27247;48.020;16.720;2023-12-20T16:37:44;3.00;;;2.37;;
41514;SDS011;27247;48.020;16.720;2023-12-20T16:41:54;3.77;;;2.60;;
41514;SDS011;27247;48.020;16.720;2023-12-20T16:46:04;2.83;;;2.53;;
41514;SDS011;27247;48.020;16.720;2023-12-20T16:50:15;2.88;;;2.40;;
41514;SDS011;27247;48.020;16.720;2023-12-20T16:54:26;7.78;;;4.07;;
41514;SDS011;27247;48.020;16.720;2023-12-20T16:58:36;6.15;;;4.05;;
41514;SDS011;27247;48.020;16.720;2023-12-20T17:02:46;4.30;;;3.07;;
41514;SDS011;27247;48.020;16.720;2023-12-20T17:06:56;5.43;;;2.33;;
41514;SDS011;27247;48.020;16.720;2023-12-20T17:11:07;2.57;;;2.10;;
41514;SDS011;27247;48.020;16.720;2023-12-20T17:15:17;1.77;;;1.67;;
41514;SDS011;27247;48.020;16.720;2023-12-20T17:19:27;2.20;;;2.00;;
41514;SDS011;27247;48.020;16.720;2023-12-20T17:23:40;2.28;;;1.75;;
41514;SDS011;27247;48.020;16.720;2023-12-20T17:27:50;2.93;;;1.87;;
41514;SDS011;27247;48.020;16.720;2023-12-20T17:32:00;4.70;;;2.40;;
41514;SDS011;27247;48.020;16.720;2023-12-20T17:36:10;3.15;;;2.50;;
41514;SDS011;27247;48.020;16.720;2023-12-20T17:40:24;6.30;;;2.47;;
41514;SDS011;27247;48.020;16.720;2023-12-20T17:44:34;3.30;;;1.97;;
41514;SDS011;27247;48.020;16.720;2023-12-20T17:48:44;5.57;;;2.00;;
41514;SDS011;27247;48.020;16.720;2023-12-20T17:52:55;2.03;;;1.83;;
41514;SDS011;27247;48.020;16.720;2023-12-20T17:57:08;3.35;;;1.80;;
41514;SDS011;27247;48.020;16.720;2023-12-20T18:01:19;3.63;;;2.00;;
41514;SDS011;27247;48.020;16.720;2023-12-20T18:05:29;6.40;;;2.08;;
41514;SDS011;27247;48.020;16.720;2023-12-20T18:09:40;2.58;;;1.85;;
41514;SDS011;27247;48.020;16.720;2023-12-20T18:13:51;2.80;;;1.90;;
41514;SDS011;27247;48.020;16.720;2023-12-20T18:18:02;3.70;;;2.05;;
41514;SDS011;27247;48.020;16.720;2023-12-20T18:22:14;2.88;;;1.75;;
41514;SDS011;27247;48.020;16.720;2023-12-20T18:26:25;2.03;;;1.75;;
41514;SDS011;27247;48.020;16.720;2023-12-20T18:30:36;3.05;;;1.80;;
41514;SDS011;27247;48.020;16.720;2023-12-20T18:34:47;3.33;;;1.77;;
41514;SDS011;27247;48.020;16.720;2023-12-20T18:38:58;3.38;;;1.83;;
41514;SDS011;27247;48.020;16.720;2023-12-20T18:43:09;3.00;;;1.38;;
41514;SDS011;27247;48.020;16.720;2023-12-20T18:47:20;8.13;;;1.60;;
41514;SDS011;27247;48.020;16.720;2023-12-20T18:51:32;2.60;;;1.17;;
41514;SDS011;27247;48.020;16.720;2023-12-20T18:55:43;1.80;;;1.08;;
41514;SDS011;27247;48.020;16.720;2023-12-20T18:59:54;5.55;;;1.95;;
41514;SDS011;27247;48.020;16.720;2023-12-20T19:04:05;3.00;;;1.60;;
41514;SDS011;27247;48.020;16.720;2023-12-20T19:08:16;2.92;;;1.02;;
41514;SDS011;27247;48.020;16.720;2023-12-20T19:12:27;7.97;;;1.35;;
41514;SDS011;27247;48.020;16.720;2023-12-20T19:16:39;2.53;;;1.42;;
41514;SDS011;27247;48.020;16.720;2023-12-20T19:20:50;3.08;;;1.23;;
41514;SDS011;27247;48.020;16.720;2023-12-20T19:25:03;1.73;;;1.20;;
41514;SDS011;27247;48.020;16.720;2023-12-20T19:29:18;2.10;;;1.50;;
41514;SDS011;27247;48.020;16.720;2023-12-20T19:33:35;2.40;;;1.33;;
41514;SDS011;27247;48.020;16.720;2023-12-20T19:37:48;2.33;;;1.40;;
41514;SDS011;27247;48.020;16.720;2023-12-20T19:42:00;2.67;;;1.23;;
41514;SDS011;27247;48.020;16.720;2023-12-20T19:46:11;3.67;;;1.45;;
41514;SDS011;27247;48.020;16.720;2023-12-20T19:50:23;1.65;;;1.23;;
41514;SDS011;27247;48.020;16.720;2023-12-20T19:54:34;3.53;;;1.90;;
41514;SDS011;27247;48.020;16.720;2023-12-20T19:58:45;2.40;;;1.80;;
41514;SDS011;27247;48.020;16.720;2023-12-20T20:02:58;5.15;;;1.50;;
41514;SDS011;27247;48.020;16.720;2023-12-20T20:07:09;7.00;;;2.00;;
41514;SDS011;27247;48.020;16.720;2023-12-20T20:11:24;4.13;;;2.33;;
41514;SDS011;27247;48.020;16.720;2023-12-20T20:15:36;7.13;;;2.20;;
41514;SDS011;27247;48.020;16.720;2023-12-20T20:19:47;3.45;;;2.20;;
41514;SDS011;27247;48.020;16.720;2023-12-20T20:23:58;3.47;;;2.22;;
41514;SDS011;27247;48.020;16.720;2023-12-20T20:28:09;4.60;;;2.13;;
41514;SDS011;27247;48.020;16.720;2023-12-20T20:32:21;7.53;;;2.60;;
41514;SDS011;27247;48.020;16.720;2023-12-20T20:36:32;5.45;;;2.42;;
41514;SDS011;27247;48.020;16.720;2023-12-20T20:40:43;3.38;;;2.20;;
41514;SDS011;27247;48.020;16.720;2023-12-20T20:44:55;7.68;;;1.98;;
41514;SDS011;27247;48.020;16.720;2023-12-20T20:49:06;4.88;;;2.08;;
41514;SDS011;27247;48.020;16.720;2023-12-20T20:53:18;6.13;;;2.20;;
41514;SDS011;27247;48.020;16.720;2023-12-20T20:57:32;5.78;;;2.65;;
41514;SDS011;27247;48.020;16.720;2023-12-20T21:01:43;5.32;;;2.40;;
41514;SDS011;27247;48.020;16.720;2023-12-20T21:05:54;4.85;;;2.08;;
41514;SDS011;27247;48.020;16.720;2023-12-20T21:10:04;6.68;;;1.98;;
41514;SDS011;27247;48.020;16.720;2023-12-20T21:14:16;3.67;;;1.77;;
41514;SDS011;27247;48.020;16.720;2023-12-20T21:18:26;1.73;;;1.23;;
41514;SDS011;27247;48.020;16.720;2023-12-20T21:22:37;3.78;;;1.58;;
41514;SDS011;27247;48.020;16.720;2023-12-20T21:26:48;3.35;;;1.85;;
41514;SDS011;27247;48.020;16.720;2023-12-20T21:30:58;4.33;;;1.60;;
41514;SDS011;27247;48.020;16.720;2023-12-20T21:35:09;3.33;;;1.73;;
41514;SDS011;27247;48.020;16.720;2023-12-20T21:39:19;6.00;;;1.40;;
41514;SDS011;27247;48.020;16.720;2023-12-20T21:43:29;3.23;;;1.70;;
41514;SDS011;27247;48.020;16.720;2023-12-20T21:47:39;4.87;;;1.60;;
41514;SDS011;27247;48.020;16.720;2023-12-20T21:51:52;2.03;;;1.20;;
41514;SDS011;27247;48.020;16.720;2023-12-20T21:56:02;4.47;;;1.55;;
41514;SDS011;27247;48.020;16.720;2023-12-20T22:00:13;1.73;;;1.50;;
41514;SDS011;27247;48.020;16.720;2023-12-20T22:04:24;8.07;;;2.05;;
41514;SDS011;27247;48.020;16.720;2023-12-20T22:08:35;3.20;;;1.60;;
41514;SDS011;27247;48.020;16.720;2023-12-20T22:12:45;6.20;;;2.90;;
41514;SDS011;27247;48.020;16.720;2023-12-20T22:16:56;5.37;;;1.73;;
41514;SDS011;27247;48.020;16.720;2023-12-20T22:21:07;3.08;;;1.50;;
41514;SDS011;27247;48.020;16.720;2023-12-20T22:25:20;2.47;;;1.30;;
41514;SDS011;27247;48.020;16.720;2023-12-20T22:29:30;1.60;;;1.20;;
41514;SDS011;27247;48.020;16.720;2023-12-20T22:33:40;2.43;;;1.13;;
41514;SDS011;27247;48.020;16.720;2023-12-20T22:37:51;5.27;;;1.30;;
41514;SDS011;27247;48.020;16.720;2023-12-20T22:42:02;3.95;;;1.33;;
41514;SDS011;27247;48.020;16.720;2023-12-20T22:46:12;2.20;;;1.40;;
41514;SDS011;27247;48.020;16.720;2023-12-20T22:50:23;1.63;;;0.93;;
41514;SDS011;27247;48.020;16.720;2023-12-20T22:54:34;3.65;;;1.13;;
41514;SDS011;27247;48.020;16.720;2023-12-20T22:58:44;1.50;;;0.90;;
41514;SDS011;27247;48.020;16.720;2023-12-20T23:02:54;1.50;;;0.80;;
41514;SDS011;27247;48.020;16.720;2023-12-20T23:07:05;1.13;;;0.87;;
41514;SDS011;27247;48.020;16.720;2023-12-20T23:11:16;1.85;;;0.80;;
41514;SDS011;27247;48.020;16.720;2023-12-20T23:15:26;3.13;;;0.80;;
41514;SDS011;27247;48.020;16.720;2023-12-20T23:19:37;3.83;;;1.00;;
41514;SDS011;27247;48.020;16.720;2023-12-20T23:23:47;4.60;;;0.95;;
41514;SDS011;27247;48.020;16.720;2023-12-20T23:27:58;1.33;;;0.80;;
41514;SDS011;27247;48.020;16.720;2023-12-20T23:32:08;3.15;;;0.95;;
41514;SDS011;27247;48.020;16.720;2023-12-20T23:36:19;3.00;;;0.90;;
41514;SDS011;27247;48.020;16.720;2023-12-20T23:40:29;1.55;;;0.70;;
41514;SDS011;27247;48.020;16.720;2023-12-20T23:44:39;1.90;;;0.70;;
41514;SDS011;27247;48.020;16.720;2023-12-20T23:48:51;1.48;;;0.70;;
41514;SDS011;27247;48.020;16.720;2023-12-20T23:53:01;1.42;;;0.60;;
41514;SDS011;27247;48.020;16.720;2023-12-20T23:57:11;1.80;;;0.80;;
